Time;durP1;ratioP1;P1;durP2;ratioP2;P2;SDS_P1;SDS_P2;PMS_P1;PMS_P2;Temp;Humidity;BMP_temperature;BMP_pressure;BME280_temperature;BME280_humidity;BME280_pressure;Samples;Min_cycle;Max_cycle;Signal;HPM_P1;HPM_P2
2022/08/30 00:03:27;;;;;;;16.00;13.70;;;18.80;34.50;;;;;;5127747;27;21210;-68
2022/08/30 00:05:54;;;;;;;17.87;13.60;;;18.80;34.40;;;;;;5117328;27;20553;-67
2022/08/30 00:08:21;;;;;;;15.60;13.20;;;18.70;34.60;;;;;;5128616;27;20451;-68
2022/08/30 00:10:49;;;;;;;19.47;13.30;;;18.60;35.00;;;;;;5123432;27;20455;-67
2022/08/30 00:13:19;;;;;;;15.87;14.07;;;18.60;35.00;;;;;;5123979;27;20489;-67
2022/08/30 00:15:47;;;;;;;18.43;13.40;;;18.50;35.10;;;;;;5121051;27;20450;-67
2022/08/30 00:18:16;;;;;;;16.90;13.23;;;18.50;35.30;;;;;;5125283;27;20455;-68
2022/08/30 00:20:44;;;;;;;16.20;13.53;;;18.40;35.40;;;;;;5128126;27;20450;-68
2022/08/30 00:23:11;;;;;;;17.93;12.73;;;18.40;35.40;;;;;;5124931;27;20630;-67
2022/08/30 00:25:38;;;;;;;17.53;14.23;;;18.40;35.40;;;;;;5127221;27;20976;-68
2022/08/30 00:28:05;;;;;;;18.27;13.93;;;18.40;35.50;;;;;;5126232;27;20454;-67
2022/08/30 00:30:33;;;;;;;23.13;14.43;;;18.40;35.50;;;;;;5128826;27;20477;-67
2022/08/30 00:33:00;;;;;;;16.53;13.30;;;18.40;35.60;;;;;;5128156;27;20471;-68
2022/08/30 00:35:27;;;;;;;18.87;13.70;;;18.40;35.60;;;;;;5128394;27;20972;-67
2022/08/30 00:37:54;;;;;;;16.50;13.53;;;18.30;35.80;;;;;;5124547;27;20459;-68
2022/08/30 00:40:21;;;;;;;18.73;14.43;;;18.30;35.70;;;;;;5124143;27;20458;-67
2022/08/30 00:42:49;;;;;;;15.83;13.57;;;18.30;35.50;;;;;;5125233;27;20466;-67
2022/08/30 00:45:18;;;;;;;17.33;13.80;;;18.40;35.60;;;;;;5124970;27;20446;-68
2022/08/30 00:47:46;;;;;;;19.77;14.27;;;18.40;35.60;;;;;;5126340;27;20597;-67
2022/08/30 00:50:16;;;;;;;17.90;14.37;;;18.40;35.50;;;;;;5127425;27;20458;-66
2022/08/30 00:52:46;;;;;;;16.43;13.90;;;18.30;35.50;;;;;;5123035;27;20485;-67
2022/08/30 00:55:14;;;;;;;16.13;14.43;;;18.30;35.60;;;;;;5126634;27;20462;-66
2022/08/30 00:57:43;;;;;;;18.97;14.87;;;18.40;35.50;;;;;;5124361;27;21032;-66
2022/08/30 01:00:11;;;;;;;17.90;14.50;;;18.30;35.50;;;;;;5128002;27;20461;-68
2022/08/30 01:02:38;;;;;;;16.73;14.00;;;18.30;35.30;;;;;;5122467;27;20470;-68
2022/08/30 01:05:10;;;;;;;18.70;14.33;;;18.30;35.40;;;;;;5131710;27;20454;-68
2022/08/30 01:07:38;;;;;;;16.90;13.67;;;18.30;35.60;;;;;;5130107;27;20474;-68
2022/08/30 01:10:08;;;;;;;16.00;13.30;;;18.30;35.30;;;;;;5125658;27;20973;-68
2022/08/30 01:12:35;;;;;;;19.20;14.10;;;18.30;35.70;;;;;;5125219;27;20522;-67
2022/08/30 01:15:03;;;;;;;17.53;15.23;;;18.30;35.40;;;;;;5123149;27;20450;-67
2022/08/30 01:17:30;;;;;;;17.53;13.53;;;18.20;35.40;;;;;;5123463;27;21186;-67
2022/08/30 01:20:01;;;;;;;17.60;13.23;;;18.20;35.50;;;;;;5128287;27;20466;-66
2022/08/30 01:22:34;;;;;;;15.57;13.63;;;18.20;35.60;;;;;;5124126;27;20454;-67
2022/08/30 01:25:07;;;;;;;17.10;13.53;;;18.10;36.30;;;;;;5123603;27;20474;-68
2022/08/30 01:27:37;;;;;;;16.30;13.90;;;18.00;35.80;;;;;;5125429;27;20481;-67
2022/08/30 01:30:06;;;;;;;17.00;14.53;;;18.00;35.80;;;;;;5125331;27;20455;-66
2022/08/30 01:32:39;;;;;;;17.40;14.10;;;18.00;35.60;;;;;;5125931;27;20470;-67
2022/08/30 01:35:06;;;;;;;18.30;14.60;;;18.00;35.80;;;;;;5123938;27;20957;-66
2022/08/30 01:37:35;;;;;;;20.60;14.20;;;18.00;35.70;;;;;;5120593;27;20457;-67
2022/08/30 01:40:03;;;;;;;17.40;13.97;;;18.00;35.90;;;;;;5119757;27;20461;-67
2022/08/30 01:42:31;;;;;;;17.90;14.17;;;17.90;36.00;;;;;;5124397;27;20466;-67
2022/08/30 01:44:58;;;;;;;15.77;12.53;;;17.90;36.10;;;;;;5122216;27;20533;-67
2022/08/30 01:47:24;;;;;;;17.13;14.23;;;17.90;36.10;;;;;;5127517;27;20485;-67
2022/08/30 01:49:51;;;;;;;19.03;14.20;;;17.90;36.10;;;;;;5123025;27;20452;-67
2022/08/30 01:52:18;;;;;;;17.63;14.17;;;17.90;36.30;;;;;;5125265;27;20454;-67
2022/08/30 01:54:46;;;;;;;18.23;14.27;;;17.90;36.10;;;;;;5124280;27;20454;-67
2022/08/30 01:57:17;;;;;;;18.50;13.90;;;17.80;36.10;;;;;;5122183;27;20450;-67
2022/08/30 01:59:46;;;;;;;17.53;14.87;;;17.90;36.10;;;;;;5124250;27;20984;-67
2022/08/30 02:02:14;;;;;;;18.30;15.23;;;17.90;36.10;;;;;;5119015;27;21090;-67
2022/08/30 02:04:41;;;;;;;17.50;14.70;;;17.80;36.00;;;;;;5117004;27;20938;-67
2022/08/30 02:07:08;;;;;;;17.20;14.27;;;17.80;36.00;;;;;;5121699;27;20500;-67
2022/08/30 02:09:36;;;;;;;18.77;14.67;;;17.80;36.00;;;;;;5126046;27;20458;-67
2022/08/30 02:12:05;;;;;;;15.73;14.07;;;17.90;36.00;;;;;;5123939;27;20964;-67
2022/08/30 02:14:33;;;;;;;20.53;14.57;;;17.80;35.90;;;;;;5124810;27;20492;-67
2022/08/30 02:17:01;;;;;;;17.53;14.50;;;17.80;36.00;;;;;;5123366;27;20541;-66
2022/08/30 02:19:28;;;;;;;20.70;15.03;;;17.80;36.00;;;;;;5122891;27;20890;-68
2022/08/30 02:21:55;;;;;;;16.90;14.23;;;17.80;36.00;;;;;;5125050;27;20960;-67
2022/08/30 02:24:22;;;;;;;15.70;13.50;;;17.70;36.20;;;;;;5117495;27;20471;-67
2022/08/30 02:26:49;;;;;;;19.70;14.80;;;17.70;36.20;;;;;;5126940;27;21045;-67
2022/08/30 02:29:16;;;;;;;16.60;14.20;;;17.70;36.20;;;;;;5124717;27;21184;-67
2022/08/30 02:31:44;;;;;;;17.13;14.57;;;17.70;36.20;;;;;;5122948;27;20474;-67
2022/08/30 02:34:11;;;;;;;16.67;13.80;;;17.70;36.20;;;;;;5119701;27;20485;-67
2022/08/30 02:36:39;;;;;;;17.30;14.93;;;17.70;36.90;;;;;;5119942;27;20469;-68
2022/08/30 02:39:06;;;;;;;17.23;15.10;;;17.70;36.30;;;;;;5120915;27;20541;-66
2022/08/30 02:41:33;;;;;;;16.60;13.63;;;17.60;36.30;;;;;;5126808;27;20451;-66
2022/08/30 02:43:59;;;;;;;17.30;13.90;;;17.60;36.30;;;;;;5126082;27;20479;-67
2022/08/30 02:46:26;;;;;;;15.33;12.40;;;17.60;36.20;;;;;;5127954;27;20471;-66
2022/08/30 02:48:55;;;;;;;16.10;14.40;;;17.60;36.20;;;;;;5125736;27;20493;-66
2022/08/30 02:51:22;;;;;;;15.73;14.10;;;17.60;36.40;;;;;;5127304;27;20470;-67
2022/08/30 02:53:48;;;;;;;19.20;14.60;;;17.60;36.30;;;;;;5130456;27;20478;-68
2022/08/30 02:56:16;;;;;;;19.90;15.37;;;17.60;36.20;;;;;;5122657;27;20450;-67
2022/08/30 02:58:44;;;;;;;17.43;14.10;;;17.60;36.10;;;;;;5129406;27;20478;-67
2022/08/30 03:01:12;;;;;;;17.00;13.30;;;17.60;36.10;;;;;;5123329;27;20474;-67
2022/08/30 03:03:39;;;;;;;14.73;12.67;;;17.60;36.10;;;;;;5127738;27;20506;-66
2022/08/30 03:06:09;;;;;;;18.17;13.73;;;17.60;36.00;;;;;;5119303;27;20447;-68
2022/08/30 03:08:36;;;;;;;22.40;12.97;;;17.60;36.00;;;;;;5126264;27;20474;-67
2022/08/30 03:11:04;;;;;;;32.87;14.87;;;17.50;36.20;;;;;;5123447;27;20451;-67
2022/08/30 03:13:31;;;;;;;18.27;14.50;;;17.50;36.10;;;;;;5128313;27;20857;-67
2022/08/30 03:15:58;;;;;;;16.13;13.33;;;17.50;36.00;;;;;;5124436;27;20493;-67
2022/08/30 03:18:25;;;;;;;17.87;14.00;;;17.50;36.10;;;;;;5119354;27;20459;-68
2022/08/30 03:20:52;;;;;;;16.30;13.40;;;17.50;36.20;;;;;;5128348;27;20450;-68
2022/08/30 03:23:21;;;;;;;19.70;14.77;;;17.40;36.20;;;;;;5129479;27;20470;-66
2022/08/30 03:25:47;;;;;;;17.43;14.93;;;17.40;36.30;;;;;;5123458;27;20459;-67
2022/08/30 03:28:14;;;;;;;18.53;13.80;;;17.40;36.30;;;;;;5111064;22;20495;-70
2022/08/30 03:30:41;;;;;;;14.87;13.23;;;17.30;36.60;;;;;;5004033;28;20470;-70
2022/08/30 03:33:08;;;;;;;16.53;13.80;;;17.30;36.70;;;;;;5002000;28;20590;-70
2022/08/30 03:35:34;;;;;;;17.23;12.60;;;17.20;36.50;;;;;;4993387;28;20520;-70
2022/08/30 03:38:01;;;;;;;16.73;13.30;;;17.20;36.50;;;;;;4999767;28;20498;-73
2022/08/30 03:40:29;;;;;;;16.97;14.53;;;17.20;36.60;;;;;;4999601;28;20489;-73
2022/08/30 03:42:56;;;;;;;18.00;13.03;;;17.20;36.70;;;;;;5002631;28;20460;-71
2022/08/30 03:45:23;;;;;;;18.57;14.13;;;17.20;36.80;;;;;;4995554;28;20484;-67
2022/08/30 03:47:50;;;;;;;18.50;13.47;;;17.20;36.80;;;;;;4997247;28;20495;-70
2022/08/30 03:50:16;;;;;;;16.00;13.77;;;17.20;36.90;;;;;;5002108;28;20491;-69
2022/08/30 03:52:44;;;;;;;18.63;14.03;;;17.10;36.90;;;;;;5003502;28;20467;-72
2022/08/30 03:55:12;;;;;;;16.90;13.60;;;17.10;36.90;;;;;;5003629;28;20495;-72
2022/08/30 03:57:41;;;;;;;17.10;13.43;;;17.10;36.90;;;;;;5006764;28;20456;-72
2022/08/30 04:00:10;;;;;;;16.00;13.07;;;17.10;37.00;;;;;;4999892;28;20468;-70
2022/08/30 04:02:36;;;;;;;17.17;13.90;;;17.10;36.80;;;;;;4996798;28;20936;-69
2022/08/30 04:05:04;;;;;;;18.30;13.70;;;17.10;36.80;;;;;;5003528;28;20472;-75
2022/08/30 04:07:31;;;;;;;15.80;13.40;;;17.10;36.70;;;;;;4995933;28;20491;-70
2022/08/30 04:09:58;;;;;;;20.87;13.90;;;17.10;36.70;;;;;;5003509;28;20464;-70
2022/08/30 04:12:24;;;;;;;16.50;13.30;;;17.10;36.60;;;;;;5004222;28;21044;-70
2022/08/30 04:14:53;;;;;;;18.37;14.20;;;17.00;36.50;;;;;;5004926;28;20470;-70
2022/08/30 04:17:20;;;;;;;18.97;14.20;;;17.10;36.80;;;;;;5006819;28;20460;-70
2022/08/30 04:19:46;;;;;;;17.30;13.23;;;17.10;36.80;;;;;;5004733;28;20476;-69
2022/08/30 04:22:13;;;;;;;18.10;12.93;;;17.00;36.70;;;;;;5005667;28;20452;-70
2022/08/30 04:24:40;;;;;;;18.43;14.20;;;17.00;36.90;;;;;;5000882;28;20788;-70
2022/08/30 04:27:07;;;;;;;23.27;14.30;;;17.00;36.80;;;;;;5002985;28;20486;-70
2022/08/30 04:29:34;;;;;;;17.47;15.23;;;17.00;36.80;;;;;;5007048;28;20544;-70
2022/08/30 04:32:03;;;;;;;18.63;16.63;;;17.00;37.10;;;;;;5003007;28;20490;-70
2022/08/30 04:34:30;;;;;;;18.63;15.53;;;17.00;37.10;;;;;;5005501;28;20459;-70
2022/08/30 04:36:56;;;;;;;17.20;15.30;;;16.90;37.40;;;;;;5004832;28;20563;-70
2022/08/30 04:39:23;;;;;;;19.90;15.67;;;16.80;37.70;;;;;;5004077;28;20480;-70
2022/08/30 04:41:50;;;;;;;17.70;15.80;;;16.70;37.80;;;;;;5022004;28;21173;-70
2022/08/30 04:44:17;;;;;;;23.23;16.70;;;16.70;38.00;;;;;;4997210;28;20457;-70
2022/08/30 04:46:44;;;;;;;18.20;15.77;;;16.70;38.30;;;;;;5005282;28;20460;-70
2022/08/30 04:49:12;;;;;;;20.37;16.33;;;16.70;38.20;;;;;;4999137;28;21016;-70
2022/08/30 04:51:38;;;;;;;17.90;15.30;;;16.70;38.10;;;;;;5016426;28;21167;-70
2022/08/30 04:54:05;;;;;;;18.03;15.27;;;16.70;38.00;;;;;;5005631;28;20730;-70
2022/08/30 04:56:33;;;;;;;19.10;17.00;;;16.70;38.20;;;;;;5002302;28;21080;-69
2022/08/30 04:59:00;;;;;;;19.23;15.87;;;16.80;38.20;;;;;;5016603;28;20470;-69
2022/08/30 05:01:29;;;;;;;20.73;16.20;;;16.90;38.10;;;;;;5006164;28;20468;-70
2022/08/30 05:03:57;;;;;;;20.37;16.00;;;16.90;38.20;;;;;;5029035;28;20460;-70
2022/08/30 05:06:28;;;;;;;20.83;14.73;;;17.00;38.00;;;;;;5005186;28;20956;-70
2022/08/30 05:08:55;;;;;;;17.67;14.27;;;17.20;37.80;;;;;;5024329;28;20484;-70
2022/08/30 05:11:22;;;;;;;17.60;14.90;;;17.60;37.20;;;;;;5017335;28;20460;-69
2022/08/30 05:13:49;;;;;;;15.80;13.70;;;18.00;36.60;;;;;;5027210;23;20495;-70
2022/08/30 05:16:18;;;;;;;16.63;13.33;;;18.30;35.40;;;;;;5087100;28;20452;-70
2022/08/30 05:18:45;;;;;;;14.20;11.77;;;18.50;34.30;;;;;;5086100;28;20529;-70
2022/08/30 05:21:14;;;;;;;14.10;11.70;;;18.70;33.30;;;;;;5087620;28;20455;-70
2022/08/30 05:23:43;;;;;;;15.70;12.03;;;18.80;32.70;;;;;;5081157;28;20479;-70
2022/08/30 05:26:12;;;;;;;15.07;12.97;;;18.90;32.50;;;;;;5067594;28;20457;-70
2022/08/30 05:28:39;;;;;;;15.97;12.10;;;19.10;32.70;;;;;;5056345;22;20520;-63
2022/08/30 05:31:13;;;;;;;17.53;12.93;;;19.30;33.00;;;;;;5015666;28;20550;-60
2022/08/30 05:33:40;;;;;;;15.33;13.70;;;19.50;32.30;;;;;;5013551;28;20451;-60
2022/08/30 05:36:08;;;;;;;17.90;12.37;;;19.70;31.60;;;;;;5017786;28;20558;-60
2022/08/30 05:38:35;;;;;;;16.27;12.33;;;19.90;30.80;;;;;;5008408;28;20463;-60
2022/08/30 05:41:03;;;;;;;15.00;12.70;;;20.10;29.90;;;;;;5011856;28;21176;-60
2022/08/30 05:43:30;;;;;;;12.70;11.40;;;20.40;28.30;;;;;;5010768;28;20456;-60
2022/08/30 05:46:01;;;;;;;15.60;12.27;;;20.80;27.10;;;;;;5011015;28;20466;-60
2022/08/30 05:48:28;;;;;;;15.23;12.50;;;21.10;25.70;;;;;;5010056;28;20479;-60
2022/08/30 05:51:06;;;;;;;12.67;10.90;;;21.40;25.10;;;;;;5017936;28;20459;-61
2022/08/30 05:53:33;;;;;;;14.93;11.83;;;21.70;24.20;;;;;;5010769;28;20575;-60
2022/08/30 05:56:03;;;;;;;16.00;11.30;;;22.30;22.40;;;;;;5009199;28;20452;-60
2022/08/30 05:58:31;;;;;;;14.00;10.23;;;23.10;20.40;;;;;;5008995;28;21041;-62
2022/08/30 06:00:58;;;;;;;13.20;10.90;;;24.10;18.30;;;;;;5016051;28;20467;-63
2022/08/30 06:03:25;;;;;;;14.97;10.73;;;25.10;16.00;;;;;;5011361;28;20452;-63
2022/08/30 06:05:52;;;;;;;12.40;10.20;;;26.10;13.90;;;;;;5015292;28;20459;-63
2022/08/30 06:08:19;;;;;;;12.03;10.40;;;27.10;11.50;;;;;;5004863;28;20494;-63
2022/08/30 06:10:45;;;;;;;11.33;10.13;;;28.00;9.90;;;;;;5023110;28;20458;-63
2022/08/30 06:13:15;;;;;;;12.50;10.17;;;29.20;8.10;;;;;;5007716;28;20459;-61
2022/08/30 06:15:43;;;;;;;13.83;9.73;;;30.20;6.20;;;;;;5014132;28;20463;-63
2022/08/30 06:18:10;;;;;;;16.30;10.70;;;31.00;4.30;;;;;;5020837;28;20561;-62
2022/08/30 06:20:42;;;;;;;11.90;10.60;;;31.90;2.80;;;;;;5018605;28;20464;-63
2022/08/30 06:23:09;;;;;;;12.97;10.63;;;32.80;1.90;;;;;;5017692;28;20452;-62
2022/08/30 06:25:37;;;;;;;11.93;10.07;;;33.80;1.00;;;;;;5015500;28;20457;-62
2022/08/30 06:28:04;;;;;;;11.60;9.90;;;34.30;1.00;;;;;;5020016;28;20568;-62
2022/08/30 06:30:33;;;;;;;14.30;11.20;;;34.60;1.00;;;;;;5010998;28;20471;-61
2022/08/30 06:33:00;;;;;;;11.83;10.50;;;35.40;1.00;;;;;;5018675;28;20457;-62
2022/08/30 06:35:28;;;;;;;13.00;10.40;;;36.10;1.00;;;;;;5017766;28;20455;-63
2022/08/30 06:37:55;;;;;;;12.57;10.63;;;37.00;1.00;;;;;;5010166;28;20468;-62
2022/08/30 06:40:22;;;;;;;12.07;10.80;;;37.50;1.00;;;;;;5012534;28;20462;-63
2022/08/30 06:42:50;;;;;;;10.77;9.67;;;38.20;1.00;;;;;;5018058;28;20974;-62
2022/08/30 06:45:17;;;;;;;11.20;9.40;;;38.70;1.00;;;;;;5014897;28;20627;-63
2022/08/30 06:47:45;;;;;;;12.13;10.17;;;39.30;1.00;;;;;;5007974;28;20479;-63
2022/08/30 06:50:13;;;;;;;13.10;9.20;;;39.70;1.00;;;;;;5013847;28;20464;-62
2022/08/30 06:52:41;;;;;;;11.10;9.90;;;40.20;1.00;;;;;;5020770;28;20459;-63
2022/08/30 06:55:08;;;;;;;10.90;9.80;;;40.80;1.00;;;;;;5012071;28;20546;-63
2022/08/30 06:57:35;;;;;;;13.27;9.67;;;41.30;1.00;;;;;;5012581;28;20475;-62
2022/08/30 07:00:04;;;;;;;11.23;10.13;;;41.80;1.00;;;;;;5015803;28;20454;-63
2022/08/30 07:02:30;;;;;;;11.90;10.63;;;42.30;1.00;;;;;;5011784;28;20463;-63
2022/08/30 07:05:01;;;;;;;12.20;10.60;;;42.60;1.00;;;;;;5011396;28;20462;-63
2022/08/30 07:07:27;;;;;;;10.70;9.60;;;43.00;1.00;;;;;;5006560;28;20456;-63
2022/08/30 07:09:54;;;;;;;12.00;10.67;;;43.30;1.00;;;;;;5053785;28;20464;-63
2022/08/30 07:12:21;;;;;;;11.73;10.43;;;43.60;1.00;;;;;;5017740;28;20463;-62
2022/08/30 07:14:48;;;;;;;11.57;10.47;;;44.10;1.00;;;;;;5022590;28;20451;-62
2022/08/30 07:20:00;;;;;;;11.07;9.97;;;44.90;1.00;;;;;;5010603;28;20439;-62
2022/08/30 07:22:27;;;;;;;12.00;10.70;;;45.50;1.00;;;;;;5008221;28;20456;-63
2022/08/30 07:24:54;;;;;;;15.63;11.60;;;46.20;1.00;;;;;;5019531;28;20519;-63
2022/08/30 07:27:21;;;;;;;11.97;10.50;;;46.80;1.00;;;;;;5012720;28;20452;-62
2022/08/30 07:29:49;;;;;;;10.60;9.60;;;47.20;1.00;;;;;;5019879;28;20487;-62
2022/08/30 07:32:16;;;;;;;10.93;9.90;;;47.60;1.00;;;;;;5014307;28;20472;-63
2022/08/30 07:34:43;;;;;;;10.90;9.87;;;48.10;1.00;;;;;;5017058;28;20463;-63
2022/08/30 07:37:11;;;;;;;10.77;9.77;;;48.30;1.00;;;;;;5013785;28;20456;-63
2022/08/30 07:39:38;;;;;;;12.87;11.00;;;48.70;1.00;;;;;;5016139;28;20498;-63
2022/08/30 07:42:05;;;;;;;11.07;9.97;;;49.00;1.00;;;;;;5012832;28;20456;-63
2022/08/30 07:44:32;;;;;;;10.93;10.00;;;49.20;1.00;;;;;;5018370;28;20466;-63
2022/08/30 07:46:59;;;;;;;10.97;9.97;;;49.60;1.00;;;;;;5013468;28;20530;-62
2022/08/30 07:49:26;;;;;;;11.40;10.37;;;49.90;1.00;;;;;;5026092;28;20472;-63
2022/08/30 07:51:53;;;;;;;11.40;10.40;;;50.30;1.00;;;;;;5014008;28;20455;-63
2022/08/30 07:54:21;;;;;;;11.83;10.67;;;50.50;1.00;;;;;;5010802;28;20460;-63
2022/08/30 07:56:48;;;;;;;11.53;10.43;;;50.60;1.00;;;;;;5012184;28;20455;-63
2022/08/30 07:59:15;;;;;;;11.87;10.87;;;50.60;1.00;;;;;;5016096;28;20966;-62
2022/08/30 08:01:42;;;;;;;14.27;11.43;;;50.90;1.00;;;;;;5019819;27;20467;-63
2022/08/30 08:04:08;;;;;;;11.83;10.57;;;51.30;1.00;;;;;;5017469;28;20447;-63
2022/08/30 08:06:38;;;;;;;10.90;9.93;;;51.50;1.00;;;;;;5013148;28;20472;-63
2022/08/30 08:09:06;;;;;;;11.43;10.43;;;51.30;1.00;;;;;;5032332;28;20485;-63
2022/08/30 08:11:35;;;;;;;10.40;9.50;;;51.00;1.00;;;;;;5014589;28;20456;-62
2022/08/30 08:14:03;;;;;;;10.43;8.93;;;51.50;1.00;;;;;;5014745;28;21036;-63
2022/08/30 08:16:32;;;;;;;11.20;10.10;;;51.90;1.00;;;;;;5014783;28;20474;-63
2022/08/30 08:18:59;;;;;;;10.20;8.97;;;52.00;1.00;;;;;;5015601;28;20478;-63
2022/08/30 08:21:26;;;;;;;11.50;10.40;;;52.20;1.00;;;;;;5012747;28;20474;-63
2022/08/30 08:23:54;;;;;;;11.00;9.90;;;52.30;1.00;;;;;;5013357;28;20505;-62
2022/08/30 08:26:21;;;;;;;10.50;9.50;;;52.70;1.00;;;;;;5009770;28;20456;-62
2022/08/30 08:28:49;;;;;;;11.60;10.27;;;53.10;1.00;;;;;;5012522;28;20483;-62
2022/08/30 08:31:17;;;;;;;11.50;10.40;;;53.30;1.00;;;;;;5017308;27;20497;-62
2022/08/30 08:33:44;;;;;;;9.50;8.10;;;53.60;1.00;;;;;;5001802;28;20458;-62
2022/08/30 08:36:11;;;;;;;11.33;10.20;;;53.20;1.00;;;;;;5019187;28;20460;-62
2022/08/30 08:38:38;;;;;;;9.40;8.60;;;53.50;1.00;;;;;;5011750;28;20479;-62
2022/08/30 08:41:10;;;;;;;8.17;7.37;;;53.50;1.00;;;;;;5018349;28;20466;-62
2022/08/30 08:43:37;;;;;;;9.90;8.87;;;53.60;1.00;;;;;;5016323;28;20459;-62
2022/08/30 08:46:14;;;;;;;9.30;8.40;;;53.70;1.00;;;;;;5010001;28;20539;-62
2022/08/30 08:48:46;;;;;;;10.30;9.30;;;53.50;1.00;;;;;;5018766;28;20539;-62
2022/08/30 08:54:05;;;;;;;11.47;10.27;;;53.00;1.00;;;;;;5017056;28;20549;-62
2022/08/30 08:56:33;;;;;;;10.33;9.43;;;52.00;1.00;;;;;;5015025;28;20831;-62
2022/08/30 08:58:59;;;;;;;9.67;8.70;;;51.80;1.00;;;;;;5013994;28;20475;-62
2022/08/30 09:01:30;;;;;;;13.60;9.53;;;52.20;1.00;;;;;;5014692;27;20478;-62
2022/08/30 09:03:59;;;;;;;10.10;9.10;;;52.30;1.00;;;;;;5007814;28;20454;-62
2022/08/30 09:06:48;;;;;;;10.37;9.37;;;52.50;1.00;;;;;;5007304;28;20550;-62
2022/08/30 09:09:17;;;;;;;8.37;7.57;;;52.40;1.00;;;;;;5018152;28;20501;-62
2022/08/30 09:11:47;;;;;;;10.60;9.00;;;51.80;1.00;;;;;;5012797;28;20917;-62
2022/08/30 09:14:17;;;;;;;9.00;8.20;;;51.80;1.00;;;;;;5013425;28;20679;-62
2022/08/30 09:16:52;;;;;;;7.97;7.13;;;51.20;1.00;;;;;;5014350;28;20835;-62
2022/08/30 09:19:42;;;;;;;8.93;8.13;;;50.80;1.00;;;;;;5011019;28;21097;-62
2022/08/30 09:22:16;;;;;;;9.00;7.30;;;50.70;1.00;;;;;;5006376;28;20533;-62
2022/08/30 09:24:46;;;;;;;8.40;7.60;;;50.00;1.00;;;;;;5011483;28;20451;-62
2022/08/30 09:27:26;;;;;;;7.87;7.10;;;49.10;1.00;;;;;;5008255;28;20455;-62
2022/08/30 09:29:57;;;;;;;8.20;7.40;;;49.70;1.00;;;;;;5012144;28;20461;-62
2022/08/30 09:32:31;;;;;;;9.00;7.37;;;50.80;1.00;;;;;;5013606;27;20477;-62
2022/08/30 09:34:58;;;;;;;7.00;6.00;;;51.50;1.00;;;;;;5006134;28;20808;-62
2022/08/30 09:37:29;;;;;;;7.20;6.50;;;51.60;1.00;;;;;;5006614;28;20471;-62
2022/08/30 09:39:56;;;;;;;6.80;6.20;;;52.20;1.00;;;;;;5012674;28;20517;-62
2022/08/30 09:42:25;;;;;;;8.60;6.37;;;52.70;1.00;;;;;;5014854;28;20490;-62
2022/08/30 09:44:53;;;;;;;7.83;5.57;;;52.80;1.00;;;;;;5011425;28;20461;-62
2022/08/30 09:47:24;;;;;;;6.20;5.43;;;52.90;1.00;;;;;;5013188;28;20455;-62
2022/08/30 09:50:04;;;;;;;6.93;5.50;;;52.70;1.00;;;;;;5016412;28;20455;-62
2022/08/30 09:52:55;;;;;;;6.30;5.60;;;52.80;1.00;;;;;;5011275;28;20954;-62
2022/08/30 09:55:34;;;;;;;6.77;5.53;;;53.20;1.00;;;;;;5011141;28;20459;-62
2022/08/30 09:58:08;;;;;;;4.80;4.27;;;53.50;1.00;;;;;;5007532;28;20474;-62
2022/08/30 10:00:40;;;;;;;5.40;4.27;;;53.40;1.00;;;;;;5014261;28;20478;-62
2022/08/30 10:03:24;;;;;;;5.50;5.00;;;52.90;1.00;;;;;;5017891;28;20486;-62
2022/08/30 10:06:02;;;;;;;7.20;4.80;;;52.30;1.00;;;;;;5005548;28;20462;-62
2022/08/30 10:08:42;;;;;;;6.23;4.70;;;51.70;1.00;;;;;;5018430;28;20478;-62
2022/08/30 10:11:16;;;;;;;8.03;4.37;;;51.60;1.00;;;;;;5025836;28;20943;-62
2022/08/30 10:14:08;;;;;;;5.57;5.07;;;51.70;1.00;;;;;;5019748;28;20461;-62
2022/08/30 10:16:45;;;;;;;6.43;4.77;;;51.80;1.00;;;;;;5024208;28;20467;-62
2022/08/30 10:19:31;;;;;;;5.80;4.47;;;51.60;1.00;;;;;;5022782;28;20490;-62
2022/08/30 10:22:05;;;;;;;5.43;4.57;;;51.70;1.00;;;;;;5014655;28;20465;-62
2022/08/30 10:24:37;;;;;;;6.17;5.10;;;51.70;1.00;;;;;;5018977;28;20460;-62
2022/08/30 10:27:10;;;;;;;5.17;4.50;;;51.50;1.00;;;;;;5019972;28;21477;-62
2022/08/30 10:29:43;;;;;;;4.60;4.07;;;51.80;1.00;;;;;;5009628;28;20479;-62
2022/08/30 10:32:16;;;;;;;6.10;4.80;;;52.30;1.00;;;;;;5020150;28;20467;-62
2022/08/30 10:34:49;;;;;;;5.70;4.63;;;52.50;1.00;;;;;;5018780;28;21121;-62
2022/08/30 10:37:22;;;;;;;6.27;4.33;;;52.50;1.00;;;;;;5008183;28;20462;-62
2022/08/30 10:39:52;;;;;;;5.00;4.03;;;52.30;1.00;;;;;;5015149;28;20482;-62
2022/08/30 10:42:23;;;;;;;5.30;4.00;;;51.70;1.00;;;;;;5013509;28;20463;-62
2022/08/30 10:44:54;;;;;;;6.20;4.80;;;50.90;1.00;;;;;;5014903;28;20962;-61
2022/08/30 10:47:29;;;;;;;4.90;4.23;;;50.30;1.00;;;;;;5012066;28;20456;-62
2022/08/30 10:50:04;;;;;;;6.77;4.40;;;49.80;1.00;;;;;;5012949;28;21084;-61
2022/08/30 10:52:36;;;;;;;5.80;4.40;;;49.60;1.00;;;;;;5017718;28;20551;-61
2022/08/30 10:55:08;;;;;;;4.67;3.47;;;49.00;1.00;;;;;;5022405;28;20455;-61
2022/08/30 10:57:35;;;;;;;5.40;3.80;;;48.30;1.00;;;;;;5016571;28;20471;-62
2022/08/30 11:00:07;;;;;;;6.80;3.63;;;46.80;1.00;;;;;;5021246;28;20883;-61
2022/08/30 11:03:16;;;;;;;5.90;4.10;;;45.20;1.00;;;;;;5007682;28;20957;-62
2022/08/30 11:06:18;;;;;;;5.17;4.00;;;43.10;1.00;;;;;;5042059;28;20466;-61
2022/08/30 11:09:21;;;;;;;5.10;4.07;;;40.70;1.00;;;;;;5012428;28;20530;-61
2022/08/30 11:12:16;;;;;;;6.20;3.70;;;38.90;1.00;;;;;;5013255;28;21003;-61
2022/08/30 11:14:44;;;;;;;6.30;4.03;;;37.50;1.00;;;;;;5019426;28;20477;-62
2022/08/30 11:17:24;;;;;;;7.60;4.63;;;36.40;1.00;;;;;;5021674;28;20463;-61
2022/08/30 11:19:52;;;;;;;6.23;4.83;;;35.50;1.00;;;;;;5008737;28;20486;-61
2022/08/30 11:22:24;;;;;;;5.50;4.70;;;34.90;1.00;;;;;;5015764;28;20469;-62
2022/08/30 11:25:07;;;;;;;8.40;4.83;;;34.20;1.00;;;;;;5004620;28;20455;-61
2022/08/30 11:27:43;;;;;;;5.90;4.43;;;33.50;1.00;;;;;;5019543;28;20455;-61
2022/08/30 11:30:47;;;;;;;7.23;4.67;;;33.10;1.00;;;;;;5015702;22;20480;-68
2022/08/30 11:33:44;;;;;;;8.67;4.93;;;32.50;1.00;;;;;;5109722;27;20443;-68
2022/08/30 11:36:13;;;;;;;6.83;4.93;;;32.00;1.00;;;;;;5101734;27;21012;-68
2022/08/30 11:39:02;;;;;;;7.50;5.00;;;31.70;1.00;;;;;;5103706;27;20462;-68
2022/08/30 11:41:34;;;;;;;6.73;4.80;;;31.60;1.00;;;;;;5089267;28;20456;-67
2022/08/30 11:44:27;;;;;;;6.60;4.47;;;31.30;1.00;;;;;;5099194;28;20703;-68
2022/08/30 11:46:55;;;;;;;6.87;5.10;;;31.10;1.00;;;;;;5089415;28;20455;-68
2022/08/30 11:49:45;;;;;;;5.80;4.27;;;31.00;1.00;;;;;;5096181;28;21162;-68
2022/08/30 11:52:36;;;;;;;8.57;5.30;;;31.00;1.00;;;;;;5086943;28;20460;-68
2022/08/30 11:55:49;;;;;;;6.60;4.70;;;30.90;1.00;;;;;;5083659;28;20459;-68
2022/08/30 11:58:34;;;;;;;7.23;4.80;;;30.70;1.00;;;;;;4994896;28;20464;-68
2022/08/30 12:01:18;;;;;;;5.90;4.47;;;30.60;1.10;;;;;;5074569;28;20468;-69
2022/08/30 12:03:53;;;;;;;7.37;5.43;;;30.70;1.60;;;;;;5092525;28;20981;-68
2022/08/30 12:06:52;;;;;;;8.67;4.80;;;30.60;2.00;;;;;;5089307;28;21142;-68
2022/08/30 12:10:00;;;;;;;6.73;5.67;;;30.40;1.90;;;;;;5084588;28;20537;-68
2022/08/30 12:12:51;;;;;;;6.37;4.63;;;30.40;2.90;;;;;;5085207;28;20460;-68
2022/08/30 12:15:57;;;;;;;7.57;4.47;;;30.40;3.00;;;;;;5086906;28;20539;-68
2022/08/30 12:18:38;;;;;;;6.97;5.07;;;30.30;2.50;;;;;;5087986;28;20531;-68
2022/08/30 12:21:14;;;;;;;8.33;5.03;;;30.40;2.80;;;;;;5083534;28;20978;-68
2022/08/30 12:23:48;;;;;;;7.67;5.33;;;30.40;2.10;;;;;;5088991;28;20456;-68
2022/08/30 12:26:28;;;;;;;7.23;5.23;;;30.40;2.10;;;;;;5090112;28;20462;-68
2022/08/30 12:29:17;;;;;;;6.77;4.87;;;30.30;1.40;;;;;;5093754;28;20456;-68
2022/08/30 12:31:47;;;;;;;7.03;4.90;;;30.40;2.00;;;;;;5087630;28;20838;-68
2022/08/30 12:34:24;;;;;;;6.47;5.13;;;30.40;1.60;;;;;;5088881;28;20846;-68
2022/08/30 12:36:57;;;;;;;9.70;5.23;;;30.40;2.10;;;;;;5088362;28;20558;-68
2022/08/30 12:39:27;;;;;;;6.77;5.10;;;30.50;2.20;;;;;;5088442;28;20472;-68
2022/08/30 12:41:53;;;;;;;6.60;4.60;;;30.50;2.00;;;;;;5091788;28;20454;-68
2022/08/30 12:44:24;;;;;;;6.33;5.17;;;30.60;2.30;;;;;;5079390;28;20464;-68
2022/08/30 12:46:54;;;;;;;8.43;5.00;;;30.80;2.60;;;;;;5090281;28;20456;-68
2022/08/30 12:49:25;;;;;;;7.10;4.63;;;30.90;1.10;;;;;;5080816;28;20460;-68
2022/08/30 12:51:52;;;;;;;7.70;5.40;;;31.00;1.70;;;;;;5096342;28;20462;-68
2022/08/30 12:54:22;;;;;;;6.07;4.53;;;31.10;1.80;;;;;;5093633;28;20474;-68
2022/08/30 12:56:57;;;;;;;8.53;5.33;;;30.90;1.00;;;;;;5092454;28;20832;-70
2022/08/30 12:59:52;;;;;;;7.93;5.10;;;30.70;1.00;;;;;;5085720;28;20472;-67
2022/08/30 13:02:21;;;;;;;6.83;5.23;;;30.60;1.00;;;;;;4922148;28;20477;-67
2022/08/30 13:04:51;;;;;;;8.80;5.43;;;30.50;1.70;;;;;;4965627;28;21041;-68